Time;durP1;ratioP1;P1;durP2;ratioP2;P2;SDS_P1;SDS_P2;PMS_P1;PMS_P2;Temp;Humidity;BMP_temperature;BMP_pressure;BME280_temperature;BME280_humidity;BME280_pressure;Samples;Min_cycle;Max_cycle;Signal;HPM_P1;HPM_P2
2022/09/11 00:00:47;;;;;;;49.25;32.85;;;;;;;;;;4987348;28;20038;-65
2022/09/11 00:03:14;;;;;;;52.85;33.83;;;;;;;;;;4994267;28;20048;-64
2022/09/11 00:05:42;;;;;;;51.45;33.85;;;;;;;;;;4988388;28;20035;-64
2022/09/11 00:08:10;;;;;;;55.30;35.75;;;;;;;;;;4988647;28;20498;-63
2022/09/11 00:10:38;;;;;;;56.65;37.42;;;;;;;;;;4985357;28;20101;-64
2022/09/11 00:13:13;;;;;;;54.95;35.22;;;;;;;;;;4987802;28;20069;-65
2022/09/11 00:15:41;;;;;;;63.10;40.30;;;;;;;;;;5003539;28;20077;-64
2022/09/11 00:18:08;;;;;;;69.75;45.13;;;;;;;;;;4990015;28;20042;-63
2022/09/11 00:20:34;;;;;;;72.22;44.65;;;;;;;;;;5000088;28;20566;-64
2022/09/11 00:23:03;;;;;;;69.50;45.30;;;;;;;;;;4990412;28;21329;-63
2022/09/11 00:25:33;;;;;;;69.93;45.67;;;;;;;;;;4979495;28;20037;-64
2022/09/11 00:28:00;;;;;;;69.55;46.92;;;;;;;;;;4985752;28;20541;-64
2022/09/11 00:30:26;;;;;;;72.32;47.13;;;;;;;;;;4988059;28;20042;-64
2022/09/11 00:32:53;;;;;;;67.00;44.90;;;;;;;;;;4988582;28;20462;-64
2022/09/11 00:35:20;;;;;;;66.57;44.00;;;;;;;;;;4985561;28;20546;-64
2022/09/11 00:37:47;;;;;;;68.90;45.10;;;;;;;;;;4985369;28;20030;-64
2022/09/11 00:40:15;;;;;;;67.38;44.90;;;;;;;;;;4991993;28;20101;-64
2022/09/11 00:42:42;;;;;;;68.63;45.03;;;;;;;;;;4988600;28;20134;-64
2022/09/11 00:45:16;;;;;;;65.75;44.17;;;;;;;;;;5001996;28;20068;-66
2022/09/11 00:47:43;;;;;;;69.78;45.45;;;;;;;;;;4985444;28;20043;-64
2022/09/11 00:50:15;;;;;;;69.07;46.25;;;;;;;;;;4987811;28;20434;-64
2022/09/11 00:52:45;;;;;;;74.03;47.93;;;;;;;;;;4987031;28;20050;-64
2022/09/11 00:55:13;;;;;;;70.40;46.53;;;;;;;;;;5009330;28;20038;-64
2022/09/11 00:57:45;;;;;;;78.18;47.70;;;;;;;;;;4986749;28;20048;-65
2022/09/11 01:00:13;;;;;;;73.03;46.85;;;;;;;;;;4987893;28;20038;-64
2022/09/11 01:02:41;;;;;;;73.85;46.13;;;;;;;;;;4988265;28;20053;-64
2022/09/11 01:05:09;;;;;;;73.05;46.97;;;;;;;;;;5000585;28;20376;-63
2022/09/11 01:07:36;;;;;;;74.00;46.42;;;;;;;;;;5000875;28;20164;-64
2022/09/11 01:10:04;;;;;;;73.28;46.30;;;;;;;;;;4986978;28;20049;-64
2022/09/11 01:12:31;;;;;;;70.43;44.40;;;;;;;;;;4987363;28;20537;-62
2022/09/11 01:15:03;;;;;;;73.60;45.65;;;;;;;;;;4986799;28;20114;-63
2022/09/11 01:17:30;;;;;;;70.05;44.55;;;;;;;;;;5002206;28;20392;-64
2022/09/11 01:20:15;;;;;;;72.20;45.70;;;;;;;;;;4988197;28;20061;-63
2022/09/11 01:22:48;;;;;;;78.65;46.80;;;;;;;;;;4987993;28;20112;-63
2022/09/11 01:25:35;;;;;;;74.22;47.05;;;;;;;;;;4987542;28;20137;-64
2022/09/11 01:28:07;;;;;;;77.53;48.03;;;;;;;;;;5012189;28;20194;-64
2022/09/11 01:30:42;;;;;;;74.03;45.85;;;;;;;;;;4999153;28;20077;-64
2022/09/11 01:33:12;;;;;;;76.50;47.55;;;;;;;;;;4983343;28;20050;-63
2022/09/11 01:35:42;;;;;;;77.50;49.33;;;;;;;;;;4985074;28;20060;-63
2022/09/11 01:38:13;;;;;;;80.93;49.83;;;;;;;;;;4999270;28;20224;-63
2022/09/11 01:40:44;;;;;;;81.13;50.70;;;;;;;;;;5021077;28;20120;-64
2022/09/11 01:43:25;;;;;;;84.35;51.95;;;;;;;;;;5011084;28;20065;-66
2022/09/11 01:45:52;;;;;;;85.43;51.95;;;;;;;;;;5025003;28;20057;-63
2022/09/11 01:48:22;;;;;;;86.60;53.00;;;;;;;;;;5025883;28;20041;-64
2022/09/11 01:50:50;;;;;;;88.25;54.58;;;;;;;;;;4990299;28;20073;-65
2022/09/11 01:53:20;;;;;;;90.70;54.80;;;;;;;;;;5009686;28;20049;-65
2022/09/11 01:55:51;;;;;;;88.30;54.40;;;;;;;;;;5017794;28;20064;-63
2022/09/11 01:58:20;;;;;;;93.82;56.67;;;;;;;;;;5028176;28;20118;-63
2022/09/11 02:00:49;;;;;;;95.35;57.85;;;;;;;;;;5024101;28;20072;-62
2022/09/11 02:03:26;;;;;;;90.03;56.47;;;;;;;;;;5023859;28;20183;-63
2022/09/11 02:06:05;;;;;;;95.30;58.17;;;;;;;;;;5027434;28;20136;-65
2022/09/11 02:08:38;;;;;;;93.30;57.05;;;;;;;;;;5014972;28;20081;-64
2022/09/11 02:11:08;;;;;;;97.90;58.88;;;;;;;;;;4993440;28;20048;-64
2022/09/11 02:13:55;;;;;;;99.10;59.17;;;;;;;;;;4992142;28;20026;-64
2022/09/11 02:16:25;;;;;;;92.57;55.53;;;;;;;;;;4991687;28;20584;-65
2022/09/11 02:19:12;;;;;;;97.63;59.28;;;;;;;;;;4990309;28;20129;-62
2022/09/11 02:21:39;;;;;;;99.75;59.92;;;;;;;;;;4992116;28;20046;-66
2022/09/11 02:24:06;;;;;;;102.50;61.42;;;;;;;;;;4986322;28;20125;-64
2022/09/11 02:26:34;;;;;;;98.75;62.95;;;;;;;;;;4991566;28;20051;-65
2022/09/11 02:29:01;;;;;;;105.05;63.28;;;;;;;;;;5000826;28;20046;-65
2022/09/11 02:31:28;;;;;;;101.93;59.88;;;;;;;;;;4991501;28;20053;-68
2022/09/11 02:33:54;;;;;;;107.22;60.60;;;;;;;;;;4987433;28;20050;-67
2022/09/11 02:36:30;;;;;;;106.82;61.88;;;;;;;;;;5002039;28;20037;-68
2022/09/11 02:38:56;;;;;;;107.93;62.40;;;;;;;;;;4988985;28;20071;-68
2022/09/11 02:41:41;;;;;;;108.30;62.63;;;;;;;;;;4994406;28;20026;-68
2022/09/11 02:44:23;;;;;;;105.35;61.22;;;;;;;;;;5003328;28;20038;-67
2022/09/11 02:47:07;;;;;;;107.80;62.65;;;;;;;;;;5007381;28;20427;-68
2022/09/11 02:49:52;;;;;;;109.15;63.85;;;;;;;;;;4995318;28;20057;-67
2022/09/11 02:52:48;;;;;;;106.78;61.80;;;;;;;;;;4976277;28;20084;-67
2022/09/11 02:55:24;;;;;;;113.53;63.80;;;;;;;;;;4984815;28;20057;-68
2022/09/11 02:58:06;;;;;;;109.05;64.80;;;;;;;;;;4984136;28;20058;-66
2022/09/11 03:00:55;;;;;;;113.63;65.78;;;;;;;;;;4957316;28;20675;-68
2022/09/11 03:03:21;;;;;;;110.60;64.38;;;;;;;;;;4963663;28;20085;-69
2022/09/11 03:05:48;;;;;;;110.10;65.75;;;;;;;;;;4960269;28;20150;-68
2022/09/11 03:08:16;;;;;;;115.70;65.97;;;;;;;;;;4972095;28;20159;-68
2022/09/11 03:10:45;;;;;;;120.00;66.32;;;;;;;;;;4977281;28;20185;-69
2022/09/11 03:13:15;;;;;;;119.05;65.40;;;;;;;;;;4989038;28;20041;-68
2022/09/11 03:15:45;;;;;;;117.45;68.32;;;;;;;;;;4988472;28;20063;-68
2022/09/11 03:18:14;;;;;;;112.40;66.32;;;;;;;;;;4969059;28;20095;-69
2022/09/11 03:20:46;;;;;;;118.32;66.28;;;;;;;;;;4971517;28;20049;-68
2022/09/11 03:23:13;;;;;;;111.97;63.38;;;;;;;;;;4991556;28;20495;-68
2022/09/11 03:25:40;;;;;;;115.10;67.32;;;;;;;;;;4988883;28;20129;-67
2022/09/11 03:28:07;;;;;;;117.90;65.82;;;;;;;;;;4982264;28;20042;-67
2022/09/11 03:30:34;;;;;;;120.88;67.60;;;;;;;;;;4986164;28;20038;-67
2022/09/11 03:33:01;;;;;;;118.22;65.68;;;;;;;;;;4990097;28;20879;-68
2022/09/11 03:35:28;;;;;;;117.63;67.03;;;;;;;;;;4987687;28;20042;-68
2022/09/11 03:37:55;;;;;;;116.63;64.78;;;;;;;;;;4990580;28;20038;-68
2022/09/11 03:40:21;;;;;;;117.03;66.32;;;;;;;;;;4988809;28;20049;-69
2022/09/11 03:42:48;;;;;;;114.18;64.85;;;;;;;;;;4988387;28;20037;-71
2022/09/11 03:45:15;;;;;;;110.88;63.13;;;;;;;;;;4996397;28;20041;-69
2022/09/11 03:47:41;;;;;;;108.82;62.05;;;;;;;;;;4988161;28;20038;-69
2022/09/11 03:50:10;;;;;;;112.57;63.17;;;;;;;;;;4988199;28;20627;-68
2022/09/11 03:52:36;;;;;;;106.25;61.60;;;;;;;;;;4987209;28;20100;-68
2022/09/11 03:55:07;;;;;;;113.50;62.75;;;;;;;;;;4987214;28;20045;-68
2022/09/11 03:57:34;;;;;;;111.93;63.00;;;;;;;;;;4991116;28;20108;-68
2022/09/11 04:00:01;;;;;;;107.88;59.10;;;;;;;;;;5005911;28;20514;-68
2022/09/11 04:02:27;;;;;;;106.72;60.08;;;;;;;;;;4990774;28;20117;-69
2022/09/11 04:04:54;;;;;;;105.07;58.38;;;;;;;;;;4989731;28;20050;-68
2022/09/11 04:07:21;;;;;;;107.57;59.03;;;;;;;;;;4988636;28;20065;-68
2022/09/11 04:09:47;;;;;;;102.70;57.25;;;;;;;;;;4990465;28;20050;-67
2022/09/11 04:12:15;;;;;;;103.53;55.85;;;;;;;;;;4992119;28;20648;-69
2022/09/11 04:15:01;;;;;;;97.90;55.20;;;;;;;;;;4991462;28;20387;-67
2022/09/11 04:17:29;;;;;;;103.60;55.65;;;;;;;;;;4989589;28;20083;-66
2022/09/11 04:19:57;;;;;;;97.05;53.88;;;;;;;;;;4989592;28;20126;-67
2022/09/11 04:22:24;;;;;;;97.65;52.75;;;;;;;;;;4979503;28;20152;-67
2022/09/11 04:24:50;;;;;;;98.60;53.20;;;;;;;;;;4974076;28;20769;-68
2022/09/11 04:27:17;;;;;;;102.25;53.55;;;;;;;;;;4987369;28;20133;-67
2022/09/11 04:29:45;;;;;;;97.40;55.08;;;;;;;;;;4977387;28;20269;-66
2022/09/11 04:32:12;;;;;;;92.43;50.70;;;;;;;;;;4984838;28;20896;-68
2022/09/11 04:34:38;;;;;;;93.07;51.13;;;;;;;;;;4979226;28;20081;-68
2022/09/11 04:37:05;;;;;;;93.47;51.03;;;;;;;;;;4979768;28;20041;-61
2022/09/11 04:39:33;;;;;;;93.47;52.35;;;;;;;;;;4990361;28;20046;-64
2022/09/11 04:42:00;;;;;;;100.72;54.45;;;;;;;;;;4995597;28;20037;-65
2022/09/11 04:44:28;;;;;;;94.22;50.97;;;;;;;;;;4991502;28;20048;-63
2022/09/11 04:46:55;;;;;;;95.07;51.40;;;;;;;;;;4992522;28;20049;-68
2022/09/11 04:49:22;;;;;;;91.03;51.08;;;;;;;;;;4987029;28;20521;-66
2022/09/11 04:52:08;;;;;;;94.53;50.22;;;;;;;;;;5007848;28;20041;-66
2022/09/11 04:54:35;;;;;;;87.55;49.53;;;;;;;;;;4999464;28;20204;-66
2022/09/11 04:57:03;;;;;;;90.13;49.72;;;;;;;;;;5003015;28;20053;-67
2022/09/11 04:59:32;;;;;;;97.07;47.40;;;;;;;;;;4984745;28;20066;-67
2022/09/11 05:01:58;;;;;;;91.40;48.53;;;;;;;;;;4974598;28;20073;-67
2022/09/11 05:04:25;;;;;;;82.18;47.10;;;;;;;;;;4985278;28;20060;-66
2022/09/11 05:06:52;;;;;;;92.22;48.47;;;;;;;;;;4986629;28;20042;-66
2022/09/11 05:09:20;;;;;;;90.38;49.58;;;;;;;;;;4958212;28;20822;-66
2022/09/11 05:11:48;;;;;;;93.13;48.03;;;;;;;;;;4944403;28;20049;-68
2022/09/11 05:14:14;;;;;;;90.03;48.50;;;;;;;;;;4982285;28;20447;-66
2022/09/11 05:16:42;;;;;;;91.07;50.42;;;;;;;;;;4981832;28;20073;-67
2022/09/11 05:19:09;;;;;;;90.10;49.88;;;;;;;;;;4983543;28;20050;-68
2022/09/11 05:21:36;;;;;;;94.57;49.65;;;;;;;;;;4983599;28;21218;-68
2022/09/11 05:24:03;;;;;;;89.68;48.22;;;;;;;;;;4982020;28;20929;-66
2022/09/11 05:26:34;;;;;;;89.53;48.83;;;;;;;;;;4980632;28;20821;-67
2022/09/11 05:29:02;;;;;;;92.95;50.25;;;;;;;;;;4981703;28;20766;-66
2022/09/11 05:31:30;;;;;;;93.53;50.88;;;;;;;;;;4964980;28;20043;-67
2022/09/11 05:33:59;;;;;;;95.72;50.70;;;;;;;;;;4964670;28;20047;-66
2022/09/11 05:36:26;;;;;;;97.88;49.95;;;;;;;;;;4969644;28;20129;-66
2022/09/11 05:38:53;;;;;;;96.90;49.63;;;;;;;;;;4987556;28;20379;-66
2022/09/11 05:41:20;;;;;;;98.55;52.40;;;;;;;;;;5002140;28;20045;-66
2022/09/11 05:43:47;;;;;;;104.90;52.65;;;;;;;;;;4985152;28;20066;-66
2022/09/11 05:46:15;;;;;;;100.05;53.90;;;;;;;;;;4986495;28;20038;-66
2022/09/11 05:48:42;;;;;;;98.88;53.75;;;;;;;;;;4985615;28;20050;-67
2022/09/11 05:51:13;;;;;;;102.63;54.80;;;;;;;;;;4987702;28;20512;-67
2022/09/11 05:53:40;;;;;;;102.32;54.95;;;;;;;;;;4984521;28;20084;-65
2022/09/11 05:56:25;;;;;;;102.97;55.03;;;;;;;;;;4986886;28;20039;-67
2022/09/11 05:58:52;;;;;;;105.93;54.55;;;;;;;;;;4985911;28;20455;-67
2022/09/11 06:01:20;;;;;;;102.07;54.78;;;;;;;;;;4986219;28;20037;-66
2022/09/11 06:03:48;;;;;;;105.72;54.80;;;;;;;;;;4992903;28;20065;-66
2022/09/11 06:06:15;;;;;;;102.75;54.65;;;;;;;;;;4987541;28;20047;-66
2022/09/11 06:08:46;;;;;;;106.65;56.65;;;;;;;;;;4985140;28;20046;-66
2022/09/11 06:11:13;;;;;;;101.80;54.58;;;;;;;;;;5001586;28;20501;-67
2022/09/11 06:13:41;;;;;;;104.35;55.22;;;;;;;;;;4985511;28;20141;-67
2022/09/11 06:16:12;;;;;;;107.22;54.92;;;;;;;;;;4986912;28;20037;-67
2022/09/11 06:18:39;;;;;;;110.75;56.53;;;;;;;;;;4985153;28;20042;-67
2022/09/11 06:21:07;;;;;;;106.72;56.85;;;;;;;;;;4986393;28;20053;-67
2022/09/11 06:23:35;;;;;;;104.78;57.05;;;;;;;;;;4985122;28;20082;-68
2022/09/11 06:26:06;;;;;;;109.15;55.67;;;;;;;;;;4987544;28;20058;-67
2022/09/11 06:28:34;;;;;;;109.18;56.85;;;;;;;;;;4993796;28;20521;-66
2022/09/11 06:31:01;;;;;;;112.40;58.90;;;;;;;;;;4986119;28;21754;-68
2022/09/11 06:33:31;;;;;;;105.57;58.08;;;;;;;;;;4988808;28;20097;-67
2022/09/11 06:35:58;;;;;;;108.03;57.00;;;;;;;;;;4990763;28;20046;-66
2022/09/11 06:38:25;;;;;;;112.00;57.67;;;;;;;;;;4991085;28;20046;-65
2022/09/11 06:40:52;;;;;;;115.25;57.88;;;;;;;;;;4998226;28;21775;-66
2022/09/11 06:43:19;;;;;;;115.55;58.00;;;;;;;;;;4989457;28;20084;-66
2022/09/11 06:45:50;;;;;;;113.97;56.78;;;;;;;;;;4990382;28;20100;-65
2022/09/11 06:48:18;;;;;;;108.50;56.63;;;;;;;;;;4987952;28;20081;-66
2022/09/11 06:50:45;;;;;;;106.55;57.13;;;;;;;;;;4988279;28;20065;-66
2022/09/11 06:53:12;;;;;;;110.57;57.22;;;;;;;;;;4988906;28;20038;-66
2022/09/11 06:55:39;;;;;;;111.90;57.38;;;;;;;;;;5009746;28;20035;-65
2022/09/11 06:58:06;;;;;;;128.70;58.70;;;;;;;;;;5003788;28;20038;-65
2022/09/11 07:00:33;;;;;;;112.30;57.13;;;;;;;;;;4988764;28;20049;-67
2022/09/11 07:03:01;;;;;;;110.28;57.53;;;;;;;;;;4987833;28;20141;-66
2022/09/11 07:05:28;;;;;;;109.00;56.47;;;;;;;;;;4985745;28;20092;-66
2022/09/11 07:07:55;;;;;;;114.43;57.72;;;;;;;;;;4997005;28;20050;-65
2022/09/11 07:10:23;;;;;;;107.95;56.60;;;;;;;;;;4988709;28;20844;-64
2022/09/11 07:12:52;;;;;;;111.45;57.30;;;;;;;;;;4985037;28;20632;-65
2022/09/11 07:15:19;;;;;;;108.78;56.65;;;;;;;;;;5007615;28;20064;-65
2022/09/11 07:17:45;;;;;;;110.13;56.03;;;;;;;;;;4997677;28;20041;-66
2022/09/11 07:20:12;;;;;;;107.90;55.85;;;;;;;;;;4990342;28;20040;-66
2022/09/11 07:22:39;;;;;;;110.55;57.42;;;;;;;;;;4988407;28;20046;-65
2022/09/11 07:25:06;;;;;;;108.78;56.70;;;;;;;;;;4989518;28;20566;-66
2022/09/11 07:27:32;;;;;;;108.88;55.45;;;;;;;;;;4989429;28;20046;-65
2022/09/11 07:29:59;;;;;;;102.97;53.15;;;;;;;;;;5004324;28;20056;-65
2022/09/11 07:32:26;;;;;;;107.38;53.85;;;;;;;;;;4987804;28;20049;-67
2022/09/11 07:34:52;;;;;;;101.38;51.70;;;;;;;;;;5004374;28;20088;-67
2022/09/11 07:37:19;;;;;;;96.28;50.15;;;;;;;;;;4990616;28;20034;-67
2022/09/11 07:39:45;;;;;;;94.30;50.13;;;;;;;;;;4989387;28;20050;-67
2022/09/11 07:42:12;;;;;;;97.47;49.25;;;;;;;;;;4990512;28;20030;-67
2022/09/11 07:44:39;;;;;;;88.72;47.17;;;;;;;;;;4995723;28;20049;-68
2022/09/11 07:47:06;;;;;;;94.22;47.78;;;;;;;;;;5005173;28;20046;-67
2022/09/11 07:49:32;;;;;;;90.30;45.08;;;;;;;;;;5003135;28;20056;-67
2022/09/11 07:52:02;;;;;;;86.88;43.17;;;;;;;;;;5006898;28;20402;-67
2022/09/11 07:54:29;;;;;;;82.22;41.83;;;;;;;;;;4994182;28;20042;-68
2022/09/11 07:56:56;;;;;;;81.22;41.97;;;;;;;;;;4991797;28;20046;-67
2022/09/11 07:59:24;;;;;;;78.70;41.00;;;;;;;;;;4993792;28;20127;-68
2022/09/11 08:01:51;;;;;;;76.32;39.65;;;;;;;;;;4990499;28;20070;-68
2022/09/11 08:04:18;;;;;;;72.63;38.05;;;;;;;;;;5004497;28;20047;-66
2022/09/11 08:06:45;;;;;;;68.68;36.35;;;;;;;;;;4991077;28;20421;-66
2022/09/11 08:09:13;;;;;;;62.33;32.97;;;;;;;;;;4996790;28;20046;-66
2022/09/11 08:11:41;;;;;;;64.22;32.10;;;;;;;;;;4990485;28;20092;-67
2022/09/11 08:14:13;;;;;;;54.78;29.98;;;;;;;;;;4986797;28;20046;-66
2022/09/11 08:16:39;;;;;;;51.95;29.40;;;;;;;;;;4986334;28;20302;-66
2022/09/11 08:19:07;;;;;;;48.65;26.77;;;;;;;;;;4984282;28;20044;-66
2022/09/11 08:21:34;;;;;;;47.92;25.10;;;;;;;;;;4997371;28;20042;-67
2022/09/11 08:24:23;;;;;;;45.78;22.90;;;;;;;;;;4985305;28;20129;-67
2022/09/11 08:26:49;;;;;;;42.22;21.75;;;;;;;;;;4969497;28;20627;-66
2022/09/11 08:29:17;;;;;;;36.55;20.38;;;;;;;;;;4984925;28;20069;-67
2022/09/11 08:31:44;;;;;;;38.10;21.15;;;;;;;;;;4957657;28;20796;-67
2022/09/11 08:34:10;;;;;;;38.30;19.35;;;;;;;;;;4937847;28;20034;-67
2022/09/11 08:36:37;;;;;;;36.42;18.50;;;;;;;;;;4980904;28;20252;-67
2022/09/11 08:39:04;;;;;;;41.08;18.15;;;;;;;;;;4965427;28;20077;-66
2022/09/11 08:41:59;;;;;;;31.63;15.98;;;;;;;;;;4924756;28;20497;-67
2022/09/11 08:44:28;;;;;;;29.05;15.32;;;;;;;;;;4935461;28;20189;-67
2022/09/11 08:47:05;;;;;;;35.00;15.63;;;;;;;;;;4954608;28;20039;-67
2022/09/11 08:49:34;;;;;;;27.95;14.15;;;;;;;;;;4936243;28;20552;-67
2022/09/11 08:52:01;;;;;;;26.52;14.13;;;;;;;;;;4953693;28;20196;-66
2022/09/11 08:54:32;;;;;;;29.15;14.32;;;;;;;;;;4934364;28;20035;-66
2022/09/11 08:57:16;;;;;;;27.33;13.65;;;;;;;;;;4942191;28;20499;-66
2022/09/11 09:00:01;;;;;;;25.00;12.95;;;;;;;;;;4974366;28;20046;-66
2022/09/11 09:02:39;;;;;;;22.73;12.07;;;;;;;;;;4959531;28;20483;-68
2022/09/11 09:05:17;;;;;;;26.55;12.98;;;;;;;;;;4957667;28;20037;-65
2022/09/11 09:07:56;;;;;;;24.02;11.85;;;;;;;;;;4955759;28;20074;-65
2022/09/11 09:10:38;;;;;;;21.33;10.95;;;;;;;;;;4956067;28;20111;-66
2022/09/11 09:13:23;;;;;;;20.50;11.07;;;;;;;;;;4956494;28;20038;-67
2022/09/11 09:16:01;;;;;;;20.50;10.40;;;;;;;;;;4959559;28;20034;-66
2022/09/11 09:18:27;;;;;;;21.30;11.10;;;;;;;;;;4975837;28;20034;-66
2022/09/11 09:21:03;;;;;;;24.48;10.93;;;;;;;;;;4986503;28;20035;-65
2022/09/11 09:23:39;;;;;;;21.95;10.80;;;;;;;;;;4986141;28;20050;-66
2022/09/11 09:26:11;;;;;;;21.92;11.27;;;;;;;;;;4987104;28;20042;-66
2022/09/11 09:28:42;;;;;;;19.85;10.27;;;;;;;;;;5002280;28;20514;-66
2022/09/11 09:31:10;;;;;;;20.55;10.63;;;;;;;;;;4986936;28;20046;-66
2022/09/11 09:33:37;;;;;;;22.05;10.10;;;;;;;;;;4994079;28;20042;-66
2022/09/11 09:36:12;;;;;;;21.13;10.35;;;;;;;;;;4987269;28;20049;-66
2022/09/11 09:38:40;;;;;;;18.30;9.55;;;;;;;;;;4986939;28;20115;-66
2022/09/11 09:41:12;;;;;;;19.13;10.15;;;;;;;;;;4988134;28;20062;-66
2022/09/11 09:43:51;;;;;;;21.38;9.38;;;;;;;;;;4985155;28;20038;-66
2022/09/11 09:46:26;;;;;;;18.15;9.50;;;;;;;;;;4986952;28;20069;-66
2022/09/11 09:48:54;;;;;;;17.85;8.93;;;;;;;;;;4987140;28;20794;-66
2022/09/11 09:51:21;;;;;;;16.77;8.23;;;;;;;;;;4987391;28;20046;-66
2022/09/11 09:53:53;;;;;;;18.35;8.73;;;;;;;;;;4986304;28;20064;-67
2022/09/11 09:56:22;;;;;;;16.10;8.65;;;;;;;;;;4987006;28;20845;-67
2022/09/11 09:58:57;;;;;;;16.73;8.30;;;;;;;;;;4993517;28;20122;-67
2022/09/11 10:01:45;;;;;;;19.10;8.00;;;;;;;;;;4986948;28;20125;-67
2022/09/11 10:04:16;;;;;;;18.13;8.05;;;;;;;;;;4987619;28;20138;-67
2022/09/11 10:06:47;;;;;;;16.85;8.55;;;;;;;;;;4987452;28;20049;-67
2022/09/11 10:09:29;;;;;;;14.10;8.00;;;;;;;;;;4999800;28;20045;-67
2022/09/11 10:12:01;;;;;;;17.70;7.93;;;;;;;;;;4990436;28;20042;-67
2022/09/11 10:14:31;;;;;;;13.35;7.22;;;;;;;;;;4989803;28;20053;-67
2022/09/11 10:16:58;;;;;;;15.75;7.03;;;;;;;;;;4990794;28;20044;-65
2022/09/11 10:19:35;;;;;;;13.63;7.05;;;;;;;;;;4989631;28;20045;-65
2022/09/11 10:22:22;;;;;;;13.43;7.05;;;;;;;;;;4989519;28;20045;-66
2022/09/11 10:25:02;;;;;;;13.18;6.95;;;;;;;;;;4990362;28;20048;-65
2022/09/11 10:27:32;;;;;;;12.32;6.75;;;;;;;;;;4989829;28;20053;-66
2022/09/11 10:29:59;;;;;;;11.55;6.78;;;;;;;;;;4991314;28;20557;-66
2022/09/11 10:32:26;;;;;;;13.43;6.32;;;;;;;;;;4990211;28;20046;-66
2022/09/11 10:34:53;;;;;;;14.88;6.93;;;;;;;;;;4990741;28;20053;-66
2022/09/11 10:37:25;;;;;;;15.63;6.95;;;;;;;;;;4991232;28;20281;-66
2022/09/11 10:39:52;;;;;;;13.05;6.57;;;;;;;;;;4990192;28;20038;-65
2022/09/11 10:42:23;;;;;;;15.63;6.50;;;;;;;;;;4990402;28;20045;-65
2022/09/11 10:44:52;;;;;;;11.38;6.57;;;;;;;;;;4990961;28;20046;-65
2022/09/11 10:47:27;;;;;;;12.60;6.35;;;;;;;;;;5006668;28;20044;-66
2022/09/11 10:50:12;;;;;;;10.45;6.43;;;;;;;;;;4989191;28;20054;-66
2022/09/11 10:52:47;;;;;;;13.68;6.25;;;;;;;;;;4989701;28;20045;-67
2022/09/11 10:55:16;;;;;;;11.95;6.30;;;;;;;;;;4990981;28;20099;-66
2022/09/11 10:57:47;;;;;;;13.52;6.68;;;;;;;;;;4989644;28;20972;-67
2022/09/11 11:00:14;;;;;;;13.15;5.97;;;;;;;;;;4990778;28;20168;-67
2022/09/11 11:02:45;;;;;;;12.63;6.28;;;;;;;;;;4989798;28;20038;-67
2022/09/11 11:05:25;;;;;;;15.10;6.57;;;;;;;;;;4990072;28;20038;-67
2022/09/11 11:08:01;;;;;;;11.02;6.15;;;;;;;;;;4990203;28;20085;-68
2022/09/11 11:10:47;;;;;;;14.13;6.05;;;;;;;;;;4995953;28;20076;-67
2022/09/11 11:13:32;;;;;;;12.80;6.53;;;;;;;;;;4990085;28;20049;-65
2022/09/11 11:16:05;;;;;;;17.35;6.32;;;;;;;;;;4990581;28;20053;-65
2022/09/11 11:18:47;;;;;;;13.10;6.47;;;;;;;;;;4988916;28;20030;-66
2022/09/11 11:21:21;;;;;;;13.65;6.72;;;;;;;;;;4991595;28;20164;-66
2022/09/11 11:24:00;;;;;;;13.50;6.45;;;;;;;;;;4989016;28;20061;-66
2022/09/11 11:26:35;;;;;;;11.40;5.82;;;;;;;;;;4992082;28;20038;-67
2022/09/11 11:29:02;;;;;;;14.18;6.97;;;;;;;;;;4991751;28;20074;-66
2022/09/11 11:31:51;;;;;;;10.50;5.78;;;;;;;;;;4992178;28;20053;-66
2022/09/11 11:34:24;;;;;;;11.70;6.63;;;;;;;;;;4992664;28;20073;-66
2022/09/11 11:36:54;;;;;;;10.55;5.97;;;;;;;;;;4991763;28;20593;-65
2022/09/11 11:39:27;;;;;;;12.23;6.15;;;;;;;;;;4994389;28;20061;-66
2022/09/11 11:42:06;;;;;;;15.02;7.20;;;;;;;;;;4991815;28;20124;-65
2022/09/11 11:44:36;;;;;;;11.20;6.03;;;;;;;;;;4989814;28;20045;-65
2022/09/11 11:47:06;;;;;;;11.52;6.65;;;;;;;;;;4988764;28;20099;-65
2022/09/11 11:49:35;;;;;;;13.65;6.60;;;;;;;;;;4989066;28;20050;-65
2022/09/11 11:52:02;;;;;;;11.63;6.40;;;;;;;;;;4987710;28;20049;-66
2022/09/11 11:55:01;;;;;;;13.85;6.40;;;;;;;;;;4989360;28;20114;-65
2022/09/11 11:57:30;;;;;;;12.75;6.60;;;;;;;;;;4986020;28;20041;-64
2022/09/11 12:00:04;;;;;;;13.38;6.63;;;;;;;;;;4990613;28;20044;-65
2022/09/11 12:02:30;;;;;;;;;;;;;;;;;;4994875;28;20534;-66
2022/09/11 12:04:59;;;;;;;15.45;6.88;;;;;;;;;;4997207;28;19921;-66
2022/09/11 12:07:30;;;;;;;12.73;6.50;;;;;;;;;;4988529;28;21009;-66
2022/09/11 12:09:58;;;;;;;15.07;7.20;;;;;;;;;;5004366;28;20046;-66
2022/09/11 12:12:27;;;;;;;11.77;6.70;;;;;;;;;;4988455;28;20074;-66
2022/09/11 12:14:54;;;;;;;13.07;6.95;;;;;;;;;;5004738;28;20045;-65
2022/09/11 12:17:28;;;;;;;14.18;7.30;;;;;;;;;;4988200;28;20092;-66
2022/09/11 12:20:10;;;;;;;11.35;6.63;;;;;;;;;;4986961;28;20154;-65
2022/09/11 12:22:40;;;;;;;14.45;6.80;;;;;;;;;;4987554;28;20041;-65
2022/09/11 12:25:19;;;;;;;14.35;6.28;;;;;;;;;;4989187;28;20034;-67
2022/09/11 12:27:47;;;;;;;13.70;6.57;;;;;;;;;;4987015;28;20524;-65
2022/09/11 12:30:16;;;;;;;16.38;6.80;;;;;;;;;;4987715;28;20053;-66
2022/09/11 12:32:47;;;;;;;13.75;6.95;;;;;;;;;;4987960;28;20038;-65
2022/09/11 12:35:25;;;;;;;13.32;6.45;;;;;;;;;;4989114;28;20057;-66
2022/09/11 12:37:55;;;;;;;14.32;6.53;;;;;;;;;;4987624;28;20125;-66
2022/09/11 12:40:45;;;;;;;12.43;6.18;;;;;;;;;;4988146;28;20125;-66
2022/09/11 12:43:34;;;;;;;11.02;6.45;;;;;;;;;;4987180;28;20033;-66
2022/09/11 12:46:05;;;;;;;13.18;6.70;;;;;;;;;;4990212;28;20053;-66
2022/09/11 12:48:37;;;;;;;14.07;6.10;;;;;;;;;;4987413;28;20054;-66
2022/09/11 12:51:06;;;;;;;13.35;6.60;;;;;;;;;;4986280;28;20343;-65
2022/09/11 12:53:35;;;;;;;19.60;6.97;;;;;;;;;;4987850;28;20967;-65
2022/09/11 12:56:15;;;;;;;15.35;7.72;;;;;;;;;;4987976;28;20133;-65
2022/09/11 12:58:43;;;;;;;13.40;6.60;;;;;;;;;;4995041;28;20038;-66
2022/09/11 13:01:12;;;;;;;11.93;7.00;;;;;;;;;;4986035;28;20034;-65
2022/09/11 13:03:45;;;;;;;14.77;7.22;;;;;;;;;;4986150;28;20148;-65
2022/09/11 13:06:13;;;;;;;13.68;6.82;;;;;;;;;;4987241;28;20046;-66
2022/09/11 13:08:45;;;;;;;13.70;6.60;;;;;;;;;;4987902;28;20643;-67
2022/09/11 13:11:30;;;;;;;14.20;6.55;;;;;;;;;;4987862;28;20043;-66
2022/09/11 13:13:57;;;;;;;12.40;6.88;;;;;;;;;;4987203;28;20624;-66
2022/09/11 13:16:25;;;;;;;16.58;7.00;;;;;;;;;;4986680;28;20045;-66
2022/09/11 13:19:08;;;;;;;14.77;7.15;;;;;;;;;;4987456;28;20046;-66
2022/09/11 13:21:41;;;;;;;12.15;6.30;;;;;;;;;;4988543;28;20034;-66
2022/09/11 13:24:26;;;;;;;10.85;5.50;;;;;;;;;;4990063;28;20042;-65
2022/09/11 13:26:55;;;;;;;15.27;6.78;;;;;;;;;;5011773;28;20050;-65
2022/09/11 13:29:26;;;;;;;13.98;6.53;;;;;;;;;;4988041;28;20054;-65
2022/09/11 13:31:54;;;;;;;13.45;6.75;;;;;;;;;;4991068;28;20121;-63
2022/09/11 13:34:23;;;;;;;12.45;6.57;;;;;;;;;;4990614;28;20037;-64
2022/09/11 13:36:50;;;;;;;11.75;6.40;;;;;;;;;;4996587;28;20076;-64
2022/09/11 13:39:18;;;;;;;13.07;6.57;;;;;;;;;;4996608;28;20070;-63
2022/09/11 13:41:45;;;;;;;13.77;6.45;;;;;;;;;;4993218;28;20043;-64
2022/09/11 13:44:23;;;;;;;14.13;6.45;;;;;;;;;;4992696;28;20385;-63
2022/09/11 13:46:51;;;;;;;12.75;6.03;;;;;;;;;;4992857;28;20038;-63
2022/09/11 13:49:18;;;;;;;13.43;6.03;;;;;;;;;;4993533;28;20503;-63
2022/09/11 13:51:46;;;;;;;12.48;6.05;;;;;;;;;;4991920;28;20092;-63
2022/09/11 13:54:27;;;;;;;14.25;6.97;;;;;;;;;;4994170;28;20069;-62
2022/09/11 13:56:57;;;;;;;11.07;6.25;;;;;;;;;;5014275;28;20044;-63
2022/09/11 13:59:38;;;;;;;13.25;7.20;;;;;;;;;;4991280;28;20034;-65
2022/09/11 14:02:27;;;;;;;13.73;6.88;;;;;;;;;;4992217;28;20119;-65
2022/09/11 14:05:00;;;;;;;13.82;6.57;;;;;;;;;;4991592;28;20519;-63
2022/09/11 14:07:27;;;;;;;16.85;7.70;;;;;;;;;;4990742;28;20061;-63
2022/09/11 14:10:01;;;;;;;14.43;7.20;;;;;;;;;;4993038;28;20054;-63
2022/09/11 14:12:28;;;;;;;13.30;7.03;;;;;;;;;;5005122;28;20116;-62
2022/09/11 14:14:58;;;;;;;17.58;6.78;;;;;;;;;;4989027;28;20073;-63
2022/09/11 14:17:25;;;;;;;12.05;6.90;;;;;;;;;;4989696;28;20038;-62
2022/09/11 14:19:53;;;;;;;13.70;7.05;;;;;;;;;;4999530;28;20398;-61
2022/09/11 14:22:26;;;;;;;13.65;6.95;;;;;;;;;;4992280;28;20041;-64
2022/09/11 14:25:15;;;;;;;13.90;7.25;;;;;;;;;;4991389;28;20038;-66
2022/09/11 14:27:42;;;;;;;11.65;6.78;;;;;;;;;;4994770;28;20069;-65
2022/09/11 14:30:30;;;;;;;20.30;7.38;;;;;;;;;;4993386;28;20056;-66
2022/09/11 14:33:15;;;;;;;12.65;7.00;;;;;;;;;;4992999;28;20052;-67
2022/09/11 14:35:43;;;;;;;12.55;6.88;;;;;;;;;;4990813;28;20084;-67
2022/09/11 14:38:11;;;;;;;15.93;7.63;;;;;;;;;;4991164;28;20038;-66
2022/09/11 14:40:41;;;;;;;12.50;6.88;;;;;;;;;;4994438;28;20041;-67